sensor_id;sensor_type;location;lat;lon;timestamp;temperature;humidity
41756;DHT22;27435;48.480;9.258;2023-06-22T00:00:52;20.80;99.00
41756;DHT22;27435;48.480;9.258;2023-06-22T00:03:19;20.70;99.00
41756;DHT22;27435;48.480;9.258;2023-06-22T00:05:45;20.60;99.00
41756;DHT22;27435;48.480;9.258;2023-06-22T00:08:11;20.50;99.00
41756;DHT22;27435;48.480;9.258;2023-06-22T00:10:37;20.50;99.00
41756;DHT22;27435;48.480;9.258;2023-06-22T00:13:03;20.60;99.00
41756;DHT22;27435;48.480;9.258;2023-06-22T00:15:29;20.60;99.00
41756;DHT22;27435;48.480;9.258;2023-06-22T00:17:55;20.60;99.00
41756;DHT22;27435;48.480;9.258;2023-06-22T00:20:22;20.70;99.00
41756;DHT22;27435;48.480;9.258;2023-06-22T00:22:48;20.60;99.00
41756;DHT22;27435;48.480;9.258;2023-06-22T00:25:13;20.50;99.00
41756;DHT22;27435;48.480;9.258;2023-06-22T00:27:39;20.50;99.00
41756;DHT22;27435;48.480;9.258;2023-06-22T00:30:05;20.50;99.00
41756;DHT22;27435;48.480;9.258;2023-06-22T00:32:31;20.30;99.00
41756;DHT22;27435;48.480;9.258;2023-06-22T00:34:56;20.30;99.00
41756;DHT22;27435;48.480;9.258;2023-06-22T00:37:22;20.30;99.00
41756;DHT22;27435;48.480;9.258;2023-06-22T00:39:51;20.30;99.00
41756;DHT22;27435;48.480;9.258;2023-06-22T00:42:17;20.10;99.00
41756;DHT22;27435;48.480;9.258;2023-06-22T00:44:43;20.20;99.00
41756;DHT22;27435;48.480;9.258;2023-06-22T00:47:11;20.10;99.00
41756;DHT22;27435;48.480;9.258;2023-06-22T00:49:38;20.10;99.00
41756;DHT22;27435;48.480;9.258;2023-06-22T00:52:05;20.00;99.00
41756;DHT22;27435;48.480;9.258;2023-06-22T00:54:35;20.00;99.00
41756;DHT22;27435;48.480;9.258;2023-06-22T00:57:02;20.00;99.00
41756;DHT22;27435;48.480;9.258;2023-06-22T00:59:28;19.90;99.00
41756;DHT22;27435;48.480;9.258;2023-06-22T01:01:54;19.70;99.00
41756;DHT22;27435;48.480;9.258;2023-06-22T01:04:26;19.60;99.00
41756;DHT22;27435;48.480;9.258;2023-06-22T01:09:38;19.30;99.00
41756;DHT22;27435;48.480;9.258;2023-06-22T01:12:08;19.20;99.00
41756;DHT22;27435;48.480;9.258;2023-06-22T01:14:47;19.00;99.00
41756;DHT22;27435;48.480;9.258;2023-06-22T01:17:19;19.00;99.00
41756;DHT22;27435;48.480;9.258;2023-06-22T01:19:49;19.00;99.00
41756;DHT22;27435;48.480;9.258;2023-06-22T01:22:23;18.90;99.00
41756;DHT22;27435;48.480;9.258;2023-06-22T01:25:12;18.80;99.00
41756;DHT22;27435;48.480;9.258;2023-06-22T01:28:24;19.10;99.00
41756;DHT22;27435;48.480;9.258;2023-06-22T01:30:51;19.30;99.00
41756;DHT22;27435;48.480;9.258;2023-06-22T01:33:29;19.40;99.00
41756;DHT22;27435;48.480;9.258;2023-06-22T01:35:54;19.40;99.00
41756;DHT22;27435;48.480;9.258;2023-06-22T01:38:20;19.20;99.00
41756;DHT22;27435;48.480;9.258;2023-06-22T01:40:47;19.00;99.00
41756;DHT22;27435;48.480;9.258;2023-06-22T01:43:12;18.90;99.00
41756;DHT22;27435;48.480;9.258;2023-06-22T01:45:38;18.80;99.00
41756;DHT22;27435;48.480;9.258;2023-06-22T01:48:04;18.80;99.00
41756;DHT22;27435;48.480;9.258;2023-06-22T01:50:30;18.80;99.00
41756;DHT22;27435;48.480;9.258;2023-06-22T01:52:55;18.80;99.00
41756;DHT22;27435;48.480;9.258;2023-06-22T01:55:21;18.80;99.00
41756;DHT22;27435;48.480;9.258;2023-06-22T01:57:47;18.70;99.00
41756;DHT22;27435;48.480;9.258;2023-06-22T02:00:18;18.60;99.00
41756;DHT22;27435;48.480;9.258;2023-06-22T02:05:48;18.40;99.00
41756;DHT22;27435;48.480;9.258;2023-06-22T02:08:23;18.30;99.00
41756;DHT22;27435;48.480;9.258;2023-06-22T02:10:52;18.30;99.00
41756;DHT22;27435;48.480;9.258;2023-06-22T02:13:19;18.40;99.00
41756;DHT22;27435;48.480;9.258;2023-06-22T02:15:45;18.30;99.00
41756;DHT22;27435;48.480;9.258;2023-06-22T02:18:12;18.10;99.00
41756;DHT22;27435;48.480;9.258;2023-06-22T02:20:39;18.00;99.00
41756;DHT22;27435;48.480;9.258;2023-06-22T02:23:06;18.00;99.00
41756;DHT22;27435;48.480;9.258;2023-06-22T02:25:32;18.10;99.00
41756;DHT22;27435;48.480;9.258;2023-06-22T02:27:58;18.20;99.00
41756;DHT22;27435;48.480;9.258;2023-06-22T02:30:23;18.20;99.00
41756;DHT22;27435;48.480;9.258;2023-06-22T02:32:49;18.10;99.00
41756;DHT22;27435;48.480;9.258;2023-06-22T02:35:17;18.10;99.00
41756;DHT22;27435;48.480;9.258;2023-06-22T02:37:42;18.10;99.00
41756;DHT22;27435;48.480;9.258;2023-06-22T02:40:08;18.30;99.00
41756;DHT22;27435;48.480;9.258;2023-06-22T02:42:39;18.40;99.00
41756;DHT22;27435;48.480;9.258;2023-06-22T02:45:05;18.30;99.00
41756;DHT22;27435;48.480;9.258;2023-06-22T02:47:31;18.10;99.00
41756;DHT22;27435;48.480;9.258;2023-06-22T02:49:56;18.10;99.00
41756;DHT22;27435;48.480;9.258;2023-06-22T02:52:22;18.00;99.00
41756;DHT22;27435;48.480;9.258;2023-06-22T02:54:48;18.00;99.00
41756;DHT22;27435;48.480;9.258;2023-06-22T02:57:13;18.00;99.00
41756;DHT22;27435;48.480;9.258;2023-06-22T02:59:40;18.10;99.00
41756;DHT22;27435;48.480;9.258;2023-06-22T03:02:09;18.10;99.00
41756;DHT22;27435;48.480;9.258;2023-06-22T03:04:35;18.00;99.00
41756;DHT22;27435;48.480;9.258;2023-06-22T03:07:01;18.00;99.00
41756;DHT22;27435;48.480;9.258;2023-06-22T03:09:28;18.00;99.00
41756;DHT22;27435;48.480;9.258;2023-06-22T03:11:57;17.90;99.00
41756;DHT22;27435;48.480;9.258;2023-06-22T03:14:22;17.80;99.00
41756;DHT22;27435;48.480;9.258;2023-06-22T03:16:48;17.70;99.00
41756;DHT22;27435;48.480;9.258;2023-06-22T03:19:14;17.70;99.00
41756;DHT22;27435;48.480;9.258;2023-06-22T03:21:40;17.60;99.00
41756;DHT22;27435;48.480;9.258;2023-06-22T03:24:06;17.50;99.00
41756;DHT22;27435;48.480;9.258;2023-06-22T03:26:32;17.50;99.00
41756;DHT22;27435;48.480;9.258;2023-06-22T03:28:58;17.40;99.00
41756;DHT22;27435;48.480;9.258;2023-06-22T03:31:24;17.30;99.00
41756;DHT22;27435;48.480;9.258;2023-06-22T03:33:50;17.30;99.00
41756;DHT22;27435;48.480;9.258;2023-06-22T03:36:17;17.30;99.00
41756;DHT22;27435;48.480;9.258;2023-06-22T03:38:47;17.30;99.00
41756;DHT22;27435;48.480;9.258;2023-06-22T03:41:12;17.60;99.00
41756;DHT22;27435;48.480;9.258;2023-06-22T03:43:38;17.60;99.00
41756;DHT22;27435;48.480;9.258;2023-06-22T03:46:04;17.50;99.00
41756;DHT22;27435;48.480;9.258;2023-06-22T03:48:30;17.60;99.00
41756;DHT22;27435;48.480;9.258;2023-06-22T03:50:56;17.70;99.00
41756;DHT22;27435;48.480;9.258;2023-06-22T03:53:21;17.70;99.00
41756;DHT22;27435;48.480;9.258;2023-06-22T03:55:51;17.70;99.00
41756;DHT22;27435;48.480;9.258;2023-06-22T03:58:21;17.90;99.00
41756;DHT22;27435;48.480;9.258;2023-06-22T04:00:50;17.90;99.00
41756;DHT22;27435;48.480;9.258;2023-06-22T04:03:17;17.90;99.00
41756;DHT22;27435;48.480;9.258;2023-06-22T04:05:46;18.00;99.00
41756;DHT22;27435;48.480;9.258;2023-06-22T04:08:15;18.10;99.00
41756;DHT22;27435;48.480;9.258;2023-06-22T04:10:41;18.30;99.00
41756;DHT22;27435;48.480;9.258;2023-06-22T04:13:07;18.30;99.00
41756;DHT22;27435;48.480;9.258;2023-06-22T04:15:32;18.20;99.00
41756;DHT22;27435;48.480;9.258;2023-06-22T04:17:58;18.30;99.00
41756;DHT22;27435;48.480;9.258;2023-06-22T04:20:23;18.30;99.00
41756;DHT22;27435;48.480;9.258;2023-06-22T04:22:55;18.30;99.00
41756;DHT22;27435;48.480;9.258;2023-06-22T04:25:21;18.10;99.00
41756;DHT22;27435;48.480;9.258;2023-06-22T04:27:47;18.20;99.00
41756;DHT22;27435;48.480;9.258;2023-06-22T04:30:14;18.40;99.00
41756;DHT22;27435;48.480;9.258;2023-06-22T04:32:41;18.60;99.00
41756;DHT22;27435;48.480;9.258;2023-06-22T04:35:07;18.60;99.00
41756;DHT22;27435;48.480;9.258;2023-06-22T04:37:34;18.80;99.00
41756;DHT22;27435;48.480;9.258;2023-06-22T04:39:59;19.10;99.00
41756;DHT22;27435;48.480;9.258;2023-06-22T04:42:28;19.00;99.00
41756;DHT22;27435;48.480;9.258;2023-06-22T04:44:54;19.10;99.00
41756;DHT22;27435;48.480;9.258;2023-06-22T04:47:20;19.10;99.00
41756;DHT22;27435;48.480;9.258;2023-06-22T04:49:45;19.00;99.00
41756;DHT22;27435;48.480;9.258;2023-06-22T04:52:13;19.30;99.00
41756;DHT22;27435;48.480;9.258;2023-06-22T04:54:40;19.40;99.00
41756;DHT22;27435;48.480;9.258;2023-06-22T04:57:13;19.50;99.00
41756;DHT22;27435;48.480;9.258;2023-06-22T04:59:40;19.50;99.00
41756;DHT22;27435;48.480;9.258;2023-06-22T05:02:07;19.50;99.00
41756;DHT22;27435;48.480;9.258;2023-06-22T05:04:33;19.80;99.00
41756;DHT22;27435;48.480;9.258;2023-06-22T05:07:02;19.70;99.00
41756;DHT22;27435;48.480;9.258;2023-06-22T05:09:28;19.80;99.00
41756;DHT22;27435;48.480;9.258;2023-06-22T05:11:54;20.00;99.00
41756;DHT22;27435;48.480;9.258;2023-06-22T05:14:20;20.20;99.00
41756;DHT22;27435;48.480;9.258;2023-06-22T05:16:46;20.30;99.00
41756;DHT22;27435;48.480;9.258;2023-06-22T05:19:12;20.40;99.00
41756;DHT22;27435;48.480;9.258;2023-06-22T05:21:38;20.40;99.00
41756;DHT22;27435;48.480;9.258;2023-06-22T05:24:04;20.30;99.00
41756;DHT22;27435;48.480;9.258;2023-06-22T05:26:31;20.30;99.00
41756;DHT22;27435;48.480;9.258;2023-06-22T05:28:57;20.60;99.00
41756;DHT22;27435;48.480;9.258;2023-06-22T05:31:23;21.10;99.00
41756;DHT22;27435;48.480;9.258;2023-06-22T05:33:53;21.80;99.00
41756;DHT22;27435;48.480;9.258;2023-06-22T05:36:19;22.10;99.00
41756;DHT22;27435;48.480;9.258;2023-06-22T05:38:51;22.50;99.00
41756;DHT22;27435;48.480;9.258;2023-06-22T05:41:17;23.30;99.00
41756;DHT22;27435;48.480;9.258;2023-06-22T05:43:42;23.80;99.00
41756;DHT22;27435;48.480;9.258;2023-06-22T05:46:08;24.40;96.60
41756;DHT22;27435;48.480;9.258;2023-06-22T05:48:33;24.30;95.40
41756;DHT22;27435;48.480;9.258;2023-06-22T05:50:59;23.70;98.50
41756;DHT22;27435;48.480;9.258;2023-06-22T05:53:25;24.00;97.80
41756;DHT22;27435;48.480;9.258;2023-06-22T05:55:51;24.40;96.10
41756;DHT22;27435;48.480;9.258;2023-06-22T05:58:16;25.00;94.20
41756;DHT22;27435;48.480;9.258;2023-06-22T06:00:42;25.40;92.20
41756;DHT22;27435;48.480;9.258;2023-06-22T06:03:10;25.00;91.40
41756;DHT22;27435;48.480;9.258;2023-06-22T06:05:36;24.40;94.80
41756;DHT22;27435;48.480;9.258;2023-06-22T06:08:03;24.80;94.10
41756;DHT22;27435;48.480;9.258;2023-06-22T06:10:33;25.00;92.60
41756;DHT22;27435;48.480;9.258;2023-06-22T06:12:59;25.40;91.60
41756;DHT22;27435;48.480;9.258;2023-06-22T06:15:27;26.20;88.70
41756;DHT22;27435;48.480;9.258;2023-06-22T06:17:53;26.60;87.20
41756;DHT22;27435;48.480;9.258;2023-06-22T06:20:20;27.00;85.10
41756;DHT22;27435;48.480;9.258;2023-06-22T06:22:47;27.20;83.70
41756;DHT22;27435;48.480;9.258;2023-06-22T06:25:13;27.40;83.40
41756;DHT22;27435;48.480;9.258;2023-06-22T06:27:44;27.80;80.90
41756;DHT22;27435;48.480;9.258;2023-06-22T06:30:14;28.00;80.50
41756;DHT22;27435;48.480;9.258;2023-06-22T06:32:41;28.40;79.40
41756;DHT22;27435;48.480;9.258;2023-06-22T06:35:09;28.60;77.70
41756;DHT22;27435;48.480;9.258;2023-06-22T06:37:45;28.40;78.30
41756;DHT22;27435;48.480;9.258;2023-06-22T06:40:13;27.80;80.20
41756;DHT22;27435;48.480;9.258;2023-06-22T06:42:46;28.10;80.40
41756;DHT22;27435;48.480;9.258;2023-06-22T06:45:19;28.00;79.80
41756;DHT22;27435;48.480;9.258;2023-06-22T06:47:46;28.30;78.30
41756;DHT22;27435;48.480;9.258;2023-06-22T06:50:12;27.80;79.40
41756;DHT22;27435;48.480;9.258;2023-06-22T06:52:38;27.70;80.10
41756;DHT22;27435;48.480;9.258;2023-06-22T06:55:04;27.90;79.30
41756;DHT22;27435;48.480;9.258;2023-06-22T06:57:30;28.20;78.80
41756;DHT22;27435;48.480;9.258;2023-06-22T06:59:56;28.50;76.50
41756;DHT22;27435;48.480;9.258;2023-06-22T07:02:23;28.30;77.60
41756;DHT22;27435;48.480;9.258;2023-06-22T07:04:48;28.80;76.90
41756;DHT22;27435;48.480;9.258;2023-06-22T07:07:14;29.30;75.00
41756;DHT22;27435;48.480;9.258;2023-06-22T07:09:40;29.10;74.90
41756;DHT22;27435;48.480;9.258;2023-06-22T07:12:06;29.20;73.90
41756;DHT22;27435;48.480;9.258;2023-06-22T07:14:32;28.80;75.70
41756;DHT22;27435;48.480;9.258;2023-06-22T07:16:58;29.10;74.80
41756;DHT22;27435;48.480;9.258;2023-06-22T07:19:25;29.10;74.80
41756;DHT22;27435;48.480;9.258;2023-06-22T07:21:51;28.70;74.80
41756;DHT22;27435;48.480;9.258;2023-06-22T07:24:17;29.00;74.60
41756;DHT22;27435;48.480;9.258;2023-06-22T07:26:42;28.60;76.00
41756;DHT22;27435;48.480;9.258;2023-06-22T07:29:11;28.90;75.40
41756;DHT22;27435;48.480;9.258;2023-06-22T07:31:37;28.60;76.70
41756;DHT22;27435;48.480;9.258;2023-06-22T07:34:02;28.00;78.80
41756;DHT22;27435;48.480;9.258;2023-06-22T07:36:29;27.70;80.70
41756;DHT22;27435;48.480;9.258;2023-06-22T07:38:55;27.00;82.10
41756;DHT22;27435;48.480;9.258;2023-06-22T07:41:21;26.60;84.60
41756;DHT22;27435;48.480;9.258;2023-06-22T07:43:46;26.50;84.90
41756;DHT22;27435;48.480;9.258;2023-06-22T07:46:12;26.40;85.50
41756;DHT22;27435;48.480;9.258;2023-06-22T07:48:38;26.40;86.60
41756;DHT22;27435;48.480;9.258;2023-06-22T07:51:04;26.70;84.50
41756;DHT22;27435;48.480;9.258;2023-06-22T07:53:31;27.00;84.40
41756;DHT22;27435;48.480;9.258;2023-06-22T07:55:57;26.90;85.30
41756;DHT22;27435;48.480;9.258;2023-06-22T07:58:22;26.80;84.90
41756;DHT22;27435;48.480;9.258;2023-06-22T08:00:48;27.00;85.20
41756;DHT22;27435;48.480;9.258;2023-06-22T08:03:14;26.90;84.90
41756;DHT22;27435;48.480;9.258;2023-06-22T08:05:40;26.50;85.50
41756;DHT22;27435;48.480;9.258;2023-06-22T08:08:06;26.70;86.50
41756;DHT22;27435;48.480;9.258;2023-06-22T08:10:31;27.20;81.30
41756;DHT22;27435;48.480;9.258;2023-06-22T08:12:57;27.70;79.90
41756;DHT22;27435;48.480;9.258;2023-06-22T08:15:23;28.00;78.10
41756;DHT22;27435;48.480;9.258;2023-06-22T08:17:48;28.20;77.60
41756;DHT22;27435;48.480;9.258;2023-06-22T08:20:14;28.40;78.00
41756;DHT22;27435;48.480;9.258;2023-06-22T08:22:41;28.40;78.80
41756;DHT22;27435;48.480;9.258;2023-06-22T08:25:07;28.40;78.80
41756;DHT22;27435;48.480;9.258;2023-06-22T08:27:34;27.90;80.60
41756;DHT22;27435;48.480;9.258;2023-06-22T08:30:00;27.60;81.50
41756;DHT22;27435;48.480;9.258;2023-06-22T08:32:27;27.50;82.20
41756;DHT22;27435;48.480;9.258;2023-06-22T08:34:54;27.30;82.30
41756;DHT22;27435;48.480;9.258;2023-06-22T08:37:20;26.90;82.80
41756;DHT22;27435;48.480;9.258;2023-06-22T08:39:59;26.80;83.50
41756;DHT22;27435;48.480;9.258;2023-06-22T08:42:25;26.80;82.90
41756;DHT22;27435;48.480;9.258;2023-06-22T08:44:51;26.80;83.40
41756;DHT22;27435;48.480;9.258;2023-06-22T08:47:17;27.30;81.70
41756;DHT22;27435;48.480;9.258;2023-06-22T08:49:42;27.30;81.90
41756;DHT22;27435;48.480;9.258;2023-06-22T08:52:08;27.30;81.90
41756;DHT22;27435;48.480;9.258;2023-06-22T08:54:33;27.40;81.70
41756;DHT22;27435;48.480;9.258;2023-06-22T08:57:01;27.40;81.60
41756;DHT22;27435;48.480;9.258;2023-06-22T08:59:27;27.40;81.70
41756;DHT22;27435;48.480;9.258;2023-06-22T09:01:53;27.60;81.70
41756;DHT22;27435;48.480;9.258;2023-06-22T09:04:19;27.70;81.30
41756;DHT22;27435;48.480;9.258;2023-06-22T09:06:47;27.80;80.30
41756;DHT22;27435;48.480;9.258;2023-06-22T09:09:13;27.50;81.90
41756;DHT22;27435;48.480;9.258;2023-06-22T09:11:40;27.90;80.70
41756;DHT22;27435;48.480;9.258;2023-06-22T09:14:05;28.50;79.50
41756;DHT22;27435;48.480;9.258;2023-06-22T09:16:32;28.60;78.50
41756;DHT22;27435;48.480;9.258;2023-06-22T09:18:57;28.80;78.00
41756;DHT22;27435;48.480;9.258;2023-06-22T09:21:23;28.30;79.30
41756;DHT22;27435;48.480;9.258;2023-06-22T09:23:49;28.50;79.20
41756;DHT22;27435;48.480;9.258;2023-06-22T09:26:19;28.60;79.00
41756;DHT22;27435;48.480;9.258;2023-06-22T09:28:45;28.80;79.00
41756;DHT22;27435;48.480;9.258;2023-06-22T09:31:11;29.10;77.70
41756;DHT22;27435;48.480;9.258;2023-06-22T09:33:37;29.10;78.00
41756;DHT22;27435;48.480;9.258;2023-06-22T09:36:05;29.10;78.20
41756;DHT22;27435;48.480;9.258;2023-06-22T09:38:35;29.20;77.20
41756;DHT22;27435;48.480;9.258;2023-06-22T09:41:00;29.00;77.30
41756;DHT22;27435;48.480;9.258;2023-06-22T09:43:27;28.70;78.00
41756;DHT22;27435;48.480;9.258;2023-06-22T09:45:52;29.10;77.60
41756;DHT22;27435;48.480;9.258;2023-06-22T09:48:18;29.40;76.80
41756;DHT22;27435;48.480;9.258;2023-06-22T09:50:44;29.80;75.10
41756;DHT22;27435;48.480;9.258;2023-06-22T09:53:09;29.60;76.90
41756;DHT22;27435;48.480;9.258;2023-06-22T09:55:35;29.40;76.40
41756;DHT22;27435;48.480;9.258;2023-06-22T09:58:00;29.50;76.40
41756;DHT22;27435;48.480;9.258;2023-06-22T10:00:26;30.10;74.90
41756;DHT22;27435;48.480;9.258;2023-06-22T10:02:52;30.10;75.00
41756;DHT22;27435;48.480;9.258;2023-06-22T10:05:18;29.80;75.30
41756;DHT22;27435;48.480;9.258;2023-06-22T10:07:43;29.80;75.70
41756;DHT22;27435;48.480;9.258;2023-06-22T10:10:10;30.10;73.90
41756;DHT22;27435;48.480;9.258;2023-06-22T10:12:36;30.60;73.40
41756;DHT22;27435;48.480;9.258;2023-06-22T10:15:02;31.10;70.80
41756;DHT22;27435;48.480;9.258;2023-06-22T10:17:28;31.20;70.70
41756;DHT22;27435;48.480;9.258;2023-06-22T10:19:54;31.20;70.10
41756;DHT22;27435;48.480;9.258;2023-06-22T10:22:19;31.10;71.80
41756;DHT22;27435;48.480;9.258;2023-06-22T10:24:45;31.10;71.80
41756;DHT22;27435;48.480;9.258;2023-06-22T10:27:11;30.90;71.40
41756;DHT22;27435;48.480;9.258;2023-06-22T10:29:37;31.20;71.10
41756;DHT22;27435;48.480;9.258;2023-06-22T10:32:03;31.60;69.70
41756;DHT22;27435;48.480;9.258;2023-06-22T10:34:29;32.00;70.40
41756;DHT22;27435;48.480;9.258;2023-06-22T10:36:54;31.70;70.00
41756;DHT22;27435;48.480;9.258;2023-06-22T10:39:20;31.50;70.30
41756;DHT22;27435;48.480;9.258;2023-06-22T10:41:45;31.10;70.90
41756;DHT22;27435;48.480;9.258;2023-06-22T10:44:11;31.40;69.30
41756;DHT22;27435;48.480;9.258;2023-06-22T10:46:37;31.80;68.30
41756;DHT22;27435;48.480;9.258;2023-06-22T10:49:03;32.10;67.80
41756;DHT22;27435;48.480;9.258;2023-06-22T10:51:28;32.20;68.50
41756;DHT22;27435;48.480;9.258;2023-06-22T10:53:54;31.90;69.90
41756;DHT22;27435;48.480;9.258;2023-06-22T10:56:20;32.10;68.90
41756;DHT22;27435;48.480;9.258;2023-06-22T10:58:45;32.20;68.80
41756;DHT22;27435;48.480;9.258;2023-06-22T11:01:11;32.00;68.70
41756;DHT22;27435;48.480;9.258;2023-06-22T11:03:37;32.20;68.20
41756;DHT22;27435;48.480;9.258;2023-06-22T11:06:02;32.50;67.40
41756;DHT22;27435;48.480;9.258;2023-06-22T11:08:28;33.40;66.40
41756;DHT22;27435;48.480;9.258;2023-06-22T11:10:54;33.60;65.50
41756;DHT22;27435;48.480;9.258;2023-06-22T11:13:19;33.50;65.90
41756;DHT22;27435;48.480;9.258;2023-06-22T11:15:45;33.30;65.70
41756;DHT22;27435;48.480;9.258;2023-06-22T11:18:10;33.00;67.00
41756;DHT22;27435;48.480;9.258;2023-06-22T11:20:36;33.90;64.20
41756;DHT22;27435;48.480;9.258;2023-06-22T11:23:07;34.10;62.20
41756;DHT22;27435;48.480;9.258;2023-06-22T11:25:33;34.40;62.10
41756;DHT22;27435;48.480;9.258;2023-06-22T11:28:02;34.00;62.60
41756;DHT22;27435;48.480;9.258;2023-06-22T11:30:28;33.40;64.20
41756;DHT22;27435;48.480;9.258;2023-06-22T11:32:54;33.10;64.40
41756;DHT22;27435;48.480;9.258;2023-06-22T11:35:19;33.10;63.70
41756;DHT22;27435;48.480;9.258;2023-06-22T11:37:45;33.20;61.20
41756;DHT22;27435;48.480;9.258;2023-06-22T11:40:11;33.40;61.10
41756;DHT22;27435;48.480;9.258;2023-06-22T11:42:37;33.80;60.80
41756;DHT22;27435;48.480;9.258;2023-06-22T11:45:04;33.60;61.70
41756;DHT22;27435;48.480;9.258;2023-06-22T11:47:30;33.40;61.70
41756;DHT22;27435;48.480;9.258;2023-06-22T11:49:55;34.00;60.50
41756;DHT22;27435;48.480;9.258;2023-06-22T11:52:21;34.60;59.10
41756;DHT22;27435;48.480;9.258;2023-06-22T11:54:47;34.90;58.70
41756;DHT22;27435;48.480;9.258;2023-06-22T11:57:12;35.00;57.90
41756;DHT22;27435;48.480;9.258;2023-06-22T11:59:38;34.90;59.80
41756;DHT22;27435;48.480;9.258;2023-06-22T12:02:03;34.50;62.20
41756;DHT22;27435;48.480;9.258;2023-06-22T12:04:30;34.10;62.40
41756;DHT22;27435;48.480;9.258;2023-06-22T12:06:56;33.90;62.00
41756;DHT22;27435;48.480;9.258;2023-06-22T12:09:22;33.60;62.70
41756;DHT22;27435;48.480;9.258;2023-06-22T12:11:47;33.70;60.80
41756;DHT22;27435;48.480;9.258;2023-06-22T12:14:13;34.00;59.80
41756;DHT22;27435;48.480;9.258;2023-06-22T12:16:38;34.20;58.90
41756;DHT22;27435;48.480;9.258;2023-06-22T12:19:04;34.30;58.70
41756;DHT22;27435;48.480;9.258;2023-06-22T12:21:30;33.80;63.40
41756;DHT22;27435;48.480;9.258;2023-06-22T12:23:55;33.40;65.50
41756;DHT22;27435;48.480;9.258;2023-06-22T12:26:21;32.60;66.80
41756;DHT22;27435;48.480;9.258;2023-06-22T12:28:48;32.60;67.10
41756;DHT22;27435;48.480;9.258;2023-06-22T12:31:14;32.70;66.60
41756;DHT22;27435;48.480;9.258;2023-06-22T12:33:40;32.30;67.90
41756;DHT22;27435;48.480;9.258;2023-06-22T12:36:05;32.50;67.10
41756;DHT22;27435;48.480;9.258;2023-06-22T12:38:31;32.10;68.70
41756;DHT22;27435;48.480;9.258;2023-06-22T12:40:57;31.90;68.40
41756;DHT22;27435;48.480;9.258;2023-06-22T12:43:22;31.70;69.50
41756;DHT22;27435;48.480;9.258;2023-06-22T12:45:48;31.40;70.00
41756;DHT22;27435;48.480;9.258;2023-06-22T12:48:13;31.30;70.60
41756;DHT22;27435;48.480;9.258;2023-06-22T12:50:39;30.90;71.60
41756;DHT22;27435;48.480;9.258;2023-06-22T12:53:04;30.60;73.20
41756;DHT22;27435;48.480;9.258;2023-06-22T12:55:31;30.60;73.30
41756;DHT22;27435;48.480;9.258;2023-06-22T12:57:57;30.70;72.60
41756;DHT22;27435;48.480;9.258;2023-06-22T13:00:23;30.70;72.20
41756;DHT22;27435;48.480;9.258;2023-06-22T13:02:48;31.00;71.90
41756;DHT22;27435;48.480;9.258;2023-06-22T13:05:14;31.40;70.40
41756;DHT22;27435;48.480;9.258;2023-06-22T13:07:40;31.80;69.60
41756;DHT22;27435;48.480;9.258;2023-06-22T13:10:07;32.10;68.60
41756;DHT22;27435;48.480;9.258;2023-06-22T13:12:33;32.40;67.90
41756;DHT22;27435;48.480;9.258;2023-06-22T13:14:59;32.60;67.00
41756;DHT22;27435;48.480;9.258;2023-06-22T13:17:24;32.90;67.00
41756;DHT22;27435;48.480;9.258;2023-06-22T13:19:50;33.50;65.30
41756;DHT22;27435;48.480;9.258;2023-06-22T13:22:48;33.50;64.70
41756;DHT22;27435;48.480;9.258;2023-06-22T13:25:14;33.20;65.60
41756;DHT22;27435;48.480;9.258;2023-06-22T13:27:44;33.40;66.10
41756;DHT22;27435;48.480;9.258;2023-06-22T13:30:10;33.70;64.60
41756;DHT22;27435;48.480;9.258;2023-06-22T13:32:36;33.90;64.90
41756;DHT22;27435;48.480;9.258;2023-06-22T13:35:02;34.10;63.60
41756;DHT22;27435;48.480;9.258;2023-06-22T13:37:27;34.20;63.60
41756;DHT22;27435;48.480;9.258;2023-06-22T13:39:53;34.50;62.50
41756;DHT22;27435;48.480;9.258;2023-06-22T13:42:21;34.30;63.20
41756;DHT22;27435;48.480;9.258;2023-06-22T13:44:48;34.20;63.40
41756;DHT22;27435;48.480;9.258;2023-06-22T13:47:14;33.90;61.90
41756;DHT22;27435;48.480;9.258;2023-06-22T13:49:39;33.00;64.00
41756;DHT22;27435;48.480;9.258;2023-06-22T13:52:05;32.70;64.60
41756;DHT22;27435;48.480;9.258;2023-06-22T13:54:35;32.60;65.00
41756;DHT22;27435;48.480;9.258;2023-06-22T13:57:01;32.70;64.80
41756;DHT22;27435;48.480;9.258;2023-06-22T13:59:26;33.00;63.90
41756;DHT22;27435;48.480;9.258;2023-06-22T14:01:53;33.20;63.80
41756;DHT22;27435;48.480;9.258;2023-06-22T14:04:19;32.90;64.90
41756;DHT22;27435;48.480;9.258;2023-06-22T14:06:44;32.40;66.70
41756;DHT22;27435;48.480;9.258;2023-06-22T14:09:10;32.40;66.60
41756;DHT22;27435;48.480;9.258;2023-06-22T14:11:36;32.10;67.30
41756;DHT22;27435;48.480;9.258;2023-06-22T14:14:01;31.70;68.10
41756;DHT22;27435;48.480;9.258;2023-06-22T14:16:27;31.90;70.80
41756;DHT22;27435;48.480;9.258;2023-06-22T14:18:53;32.00;72.40
41756;DHT22;27435;48.480;9.258;2023-06-22T14:21:18;31.90;73.80
41756;DHT22;27435;48.480;9.258;2023-06-22T14:23:44;31.90;74.30
41756;DHT22;27435;48.480;9.258;2023-06-22T14:26:15;32.00;73.50
41756;DHT22;27435;48.480;9.258;2023-06-22T14:28:46;31.70;72.50
41756;DHT22;27435;48.480;9.258;2023-06-22T14:31:18;32.00;72.40
41756;DHT22;27435;48.480;9.258;2023-06-22T14:33:46;33.30;69.80
41756;DHT22;27435;48.480;9.258;2023-06-22T14:36:12;34.20;70.70
41756;DHT22;27435;48.480;9.258;2023-06-22T14:38:38;34.40;67.20
41756;DHT22;27435;48.480;9.258;2023-06-22T14:41:04;34.80;65.70
41756;DHT22;27435;48.480;9.258;2023-06-22T14:43:29;35.50;63.70
41756;DHT22;27435;48.480;9.258;2023-06-22T14:45:55;35.50;63.30
41756;DHT22;27435;48.480;9.258;2023-06-22T14:48:20;36.40;61.70
41756;DHT22;27435;48.480;9.258;2023-06-22T14:50:46;36.50;61.10
41756;DHT22;27435;48.480;9.258;2023-06-22T14:53:12;36.20;58.60
41756;DHT22;27435;48.480;9.258;2023-06-22T14:55:37;35.90;57.20
41756;DHT22;27435;48.480;9.258;2023-06-22T14:58:03;35.30;58.40
41756;DHT22;27435;48.480;9.258;2023-06-22T15:00:29;34.50;60.20
41756;DHT22;27435;48.480;9.258;2023-06-22T15:02:54;34.10;61.10
41756;DHT22;27435;48.480;9.258;2023-06-22T15:05:20;33.70;61.60
41756;DHT22;27435;48.480;9.258;2023-06-22T15:07:45;33.00;64.10
41756;DHT22;27435;48.480;9.258;2023-06-22T15:10:11;32.80;64.60
41756;DHT22;27435;48.480;9.258;2023-06-22T15:12:37;33.50;64.10
41756;DHT22;27435;48.480;9.258;2023-06-22T15:15:02;33.50;62.40
41756;DHT22;27435;48.480;9.258;2023-06-22T15:17:28;33.40;63.10
41756;DHT22;27435;48.480;9.258;2023-06-22T15:19:57;33.10;62.90
41756;DHT22;27435;48.480;9.258;2023-06-22T15:22:23;32.40;63.30
41756;DHT22;27435;48.480;9.258;2023-06-22T15:24:48;31.90;64.60
41756;DHT22;27435;48.480;9.258;2023-06-22T15:27:14;31.60;65.70
41756;DHT22;27435;48.480;9.258;2023-06-22T15:29:40;31.20;67.40
41756;DHT22;27435;48.480;9.258;2023-06-22T15:32:06;31.00;68.30